createdAt,value
2023-08-13T00:00:28.191Z,97403.59
2023-08-13T00:02:54.948Z,97402.06
2023-08-13T00:05:21.880Z,97405.22
2023-08-13T00:07:48.458Z,97399.03
2023-08-13T00:10:15.103Z,97398.38
2023-08-13T00:12:41.866Z,97402.53
2023-08-13T00:15:09.091Z,97394.22
2023-08-13T00:17:35.731Z,97404.72
2023-08-13T00:20:02.481Z,97402.53
2023-08-13T00:22:30.576Z,97399.63
2023-08-13T00:24:57.120Z,97397.59
2023-08-13T00:27:23.796Z,97398.09
2023-08-13T00:29:50.616Z,97404.22
2023-08-13T00:32:17.462Z,97395.53
2023-08-13T00:34:44.271Z,97398.06
2023-08-13T00:37:10.826Z,97407.59
2023-08-13T00:39:37.387Z,97401.56
2023-08-13T00:42:04.779Z,97408.75
2023-08-13T00:44:31.585Z,97413.56
2023-08-13T00:46:58.283Z,97421.06
2023-08-13T00:49:25.373Z,97424.41
2023-08-13T00:51:52.266Z,97424.03
2023-08-13T00:54:19.056Z,97417.31
2023-08-13T00:56:48.161Z,97410.97
2023-08-13T00:59:15.608Z,97422.81
2023-08-13T01:01:43.530Z,97418.16
2023-08-13T01:04:10.430Z,97418.53
2023-08-13T01:06:51.988Z,97424.41
2023-08-13T01:09:45.688Z,97421.06
2023-08-13T01:12:15.576Z,97419.63
2023-08-13T01:14:49.577Z,97413.59
2023-08-13T01:17:18.866Z,97413.31
2023-08-13T01:19:45.445Z,97411.91
2023-08-13T01:22:12.431Z,97413.59
2023-08-13T01:24:39.338Z,97416.28
2023-08-13T01:27:32.793Z,97415.75
2023-08-13T01:30:11.688Z,97418.38
2023-08-13T01:32:51.943Z,97415.53
2023-08-13T01:35:22.717Z,97424.81
2023-08-13T01:37:50.926Z,97428.81
2023-08-13T01:40:17.997Z,97419.72
2023-08-13T01:42:44.587Z,97417.00
2023-08-13T01:45:11.203Z,97416.63
2023-08-13T01:47:38.027Z,97415.28
2023-08-13T01:50:04.947Z,97424.88
2023-08-13T01:52:32.517Z,97425.22
2023-08-13T01:54:59.524Z,97415.81
2023-08-13T01:57:26.179Z,97432.56
2023-08-13T01:59:52.752Z,97432.66
2023-08-13T02:02:19.504Z,97427.88
2023-08-13T02:04:46.077Z,97424.88
2023-08-13T02:07:12.733Z,97424.06
2023-08-13T02:09:39.440Z,97420.41
2023-08-13T02:12:06.327Z,97427.94
2023-08-13T02:14:32.989Z,97423.13
2023-08-13T02:17:01.002Z,97422.66
2023-08-13T02:19:27.814Z,97424.84
2023-08-13T02:21:54.372Z,97431.72
2023-08-13T02:24:21.103Z,97426.38
2023-08-13T02:26:47.661Z,97422.72
2023-08-13T02:29:14.256Z,97432.09
2023-08-13T02:31:40.954Z,97433.94
2023-08-13T02:34:07.477Z,97434.25
2023-08-13T02:36:34.040Z,97435.22
2023-08-13T02:39:00.700Z,97433.19
2023-08-13T02:41:27.282Z,97431.13
2023-08-13T02:43:57.500Z,97435.81
2023-08-13T02:46:26.195Z,97439.78
2023-08-13T02:48:57.602Z,97436.28
2023-08-13T02:51:25.494Z,97433.75
2023-08-13T02:53:52.222Z,97438.78
2023-08-13T02:56:21.767Z,97447.66
2023-08-13T02:58:48.450Z,97445.28
2023-08-13T03:01:15.205Z,97448.25
2023-08-13T03:03:52.406Z,97447.56
2023-08-13T03:06:24.060Z,97449.16
2023-08-13T03:08:50.901Z,97453.41
2023-08-13T03:11:18.372Z,97440.31
2023-08-13T03:13:45.403Z,97433.06
2023-08-13T03:16:12.131Z,97444.72
2023-08-13T03:18:38.778Z,97444.06
2023-08-13T03:21:05.372Z,97438.03
2023-08-13T03:23:33.741Z,97436.66
2023-08-13T03:26:01.529Z,97444.13
2023-08-13T03:28:28.139Z,97443.56
2023-08-13T03:31:02.047Z,97433.22
2023-08-13T03:33:29.728Z,97432.00
2023-08-13T03:35:56.238Z,97433.81
2023-08-13T03:38:22.856Z,97443.13
2023-08-13T03:40:49.531Z,97439.78
2023-08-13T03:43:16.165Z,97442.06
2023-08-13T03:45:44.036Z,97443.34
2023-08-13T03:48:10.740Z,97440.28
2023-08-13T03:50:43.885Z,97439.88
2023-08-13T03:53:10.992Z,97441.19
2023-08-13T03:55:38.669Z,97439.66
2023-08-13T03:58:05.960Z,97434.97
2023-08-13T04:00:32.594Z,97442.88
2023-08-13T04:03:03.425Z,97443.00
2023-08-13T04:05:38.556Z,97446.78
2023-08-13T04:08:05.558Z,97450.47
2023-08-13T04:10:32.410Z,97446.78
2023-08-13T04:13:01.349Z,97448.09
2023-08-13T04:15:30.874Z,97444.44
2023-08-13T04:17:57.635Z,97444.44
2023-08-13T04:20:24.214Z,97448.78
2023-08-13T04:22:50.848Z,97443.28
2023-08-13T04:25:17.486Z,97436.97
2023-08-13T04:27:44.008Z,97442.88
2023-08-13T04:30:10.929Z,97441.41
2023-08-13T04:32:40.124Z,97446.28
2023-08-13T04:35:07.302Z,97441.66
2023-08-13T04:37:34.008Z,97432.66
2023-08-13T04:40:00.657Z,97434.19
2023-08-13T04:42:27.429Z,97430.75
2023-08-13T04:44:53.976Z,97431.69
2023-08-13T04:47:20.722Z,97430.09
2023-08-13T04:49:47.277Z,97430.84
2023-08-13T04:52:15.587Z,97428.13
2023-08-13T04:54:44.116Z,97423.38
2023-08-13T04:57:10.910Z,97432.56
2023-08-13T04:59:37.493Z,97430.53
2023-08-13T05:02:04.652Z,97428.09
2023-08-13T05:04:31.382Z,97434.19
2023-08-13T05:06:58.352Z,97431.03
2023-08-13T05:09:24.978Z,97441.78
2023-08-13T05:11:51.714Z,97452.84
2023-08-13T05:14:18.593Z,97448.34
2023-08-13T05:16:45.293Z,97446.34
2023-08-13T05:19:11.867Z,97455.03
2023-08-13T05:21:38.886Z,97450.19
2023-08-13T05:24:06.216Z,97445.50
2023-08-13T05:26:32.803Z,97449.69
2023-08-13T05:28:59.415Z,97449.06
2023-08-13T05:31:26.307Z,97440.53
2023-08-13T05:33:55.049Z,97440.72
2023-08-13T05:36:21.726Z,97447.56
2023-08-13T05:38:48.453Z,97448.66
2023-08-13T05:41:14.989Z,97448.47
2023-08-13T05:43:41.802Z,97446.09
2023-08-13T05:46:09.001Z,97444.56
2023-08-13T05:48:35.925Z,97441.88
2023-08-13T05:51:02.671Z,97432.19
2023-08-13T05:53:29.266Z,97440.84
2023-08-13T05:56:00.603Z,97430.81
2023-08-13T05:58:27.378Z,97433.94
2023-08-13T06:00:54.288Z,97432.81
2023-08-13T06:03:21.197Z,97435.38
2023-08-13T06:05:48.739Z,97434.00
2023-08-13T06:08:15.362Z,97433.47
2023-08-13T06:10:42.001Z,97434.03
2023-08-13T06:13:08.773Z,97437.44
2023-08-13T06:15:35.380Z,97437.66
2023-08-13T06:18:02.049Z,97429.78
2023-08-13T06:20:29.284Z,97434.31
2023-08-13T06:22:55.935Z,97436.97
2023-08-13T06:25:22.761Z,97430.25
2023-08-13T06:27:49.446Z,97434.38
2023-08-13T06:30:17.731Z,97437.44
2023-08-13T06:32:44.410Z,97429.75
2023-08-13T06:35:11.425Z,97427.47
2023-08-13T06:37:50.978Z,97435.50
2023-08-13T06:40:24.638Z,97425.63
2023-08-13T06:42:51.244Z,97424.97
2023-08-13T06:45:18.221Z,97419.09
2023-08-13T06:47:45.514Z,97420.09
2023-08-13T06:50:12.070Z,97417.31
2023-08-13T06:52:38.837Z,97416.53
2023-08-13T06:55:05.942Z,97414.97
2023-08-13T06:57:32.595Z,97411.53
2023-08-13T06:59:59.191Z,97409.97
2023-08-13T07:02:28.066Z,97411.91
2023-08-13T07:04:54.901Z,97409.84
2023-08-13T07:07:21.474Z,97406.59
2023-08-13T07:09:48.104Z,97410.66
2023-08-13T07:12:14.984Z,97408.78
2023-08-13T07:14:42.133Z,97406.25
2023-08-13T07:17:08.815Z,97395.53
2023-08-13T07:19:35.564Z,97392.31
2023-08-13T07:22:02.479Z,97388.75
2023-08-13T07:24:29.170Z,97395.94
2023-08-13T07:26:55.698Z,97393.59
2023-08-13T07:29:22.411Z,97397.75
2023-08-13T07:31:49.090Z,97394.41
2023-08-13T07:34:15.768Z,97393.84
2023-08-13T07:36:42.774Z,97388.44
2023-08-13T07:39:11.126Z,97382.69
2023-08-13T07:41:37.704Z,97381.28
2023-08-13T07:44:06.375Z,97378.56
2023-08-13T07:46:32.947Z,97366.72
2023-08-13T07:48:59.510Z,97363.94
2023-08-13T07:51:26.449Z,97367.44
2023-08-13T07:53:53.144Z,97362.84
2023-08-13T07:56:19.758Z,97357.94
2023-08-13T07:58:46.313Z,97362.31
2023-08-13T08:01:13.816Z,97362.63
2023-08-13T08:03:40.504Z,97358.41
2023-08-13T08:06:07.244Z,97354.91
2023-08-13T08:08:34.215Z,97358.16
2023-08-13T08:11:00.753Z,97350.38
2023-08-13T08:13:27.410Z,97347.31
2023-08-13T08:15:54.151Z,97342.72
2023-08-13T08:18:20.754Z,97340.63
2023-08-13T08:20:47.279Z,97333.63
2023-08-13T08:23:15.208Z,97332.84
2023-08-13T08:25:42.007Z,97325.41
2023-08-13T08:28:08.693Z,97336.81
2023-08-13T08:30:35.542Z,97326.19
2023-08-13T08:33:02.373Z,97335.50
2023-08-13T08:35:28.875Z,97343.97
2023-08-13T08:37:55.588Z,97343.75
2023-08-13T08:40:22.211Z,97338.88
2023-08-13T08:42:48.757Z,97334.47
2023-08-13T08:45:17.335Z,97334.09
2023-08-13T08:47:44.485Z,97324.53
2023-08-13T08:50:13.094Z,97324.72
2023-08-13T08:52:40.085Z,97323.09
2023-08-13T08:55:06.862Z,97327.38
2023-08-13T08:57:33.587Z,97320.91
2023-08-13T09:00:01.063Z,97319.84
2023-08-13T09:02:27.912Z,97316.69
2023-08-13T09:04:54.682Z,97317.56
2023-08-13T09:07:29.734Z,97317.38
2023-08-13T09:09:56.296Z,97307.72
2023-08-13T09:12:23.057Z,97304.34
2023-08-13T09:14:54.303Z,97307.97
2023-08-13T09:17:23.782Z,97296.34
2023-08-13T09:19:50.435Z,97292.16
2023-08-13T09:22:17.511Z,97291.34
2023-08-13T09:24:47.948Z,97280.97
2023-08-13T09:27:15.483Z,97284.75
2023-08-13T09:29:42.599Z,97278.84
2023-08-13T09:32:09.204Z,97285.41
2023-08-13T09:34:35.925Z,97284.53
2023-08-13T09:37:03.203Z,97281.28
2023-08-13T09:39:32.146Z,97264.16
2023-08-13T09:42:00.571Z,97276.41
2023-08-13T09:44:29.060Z,97272.19
2023-08-13T09:47:07.827Z,97268.97
2023-08-13T09:49:35.377Z,97273.91
2023-08-13T09:52:09.428Z,97269.94
2023-08-13T09:54:47.230Z,97263.53
2023-08-13T09:57:17.344Z,97262.38
2023-08-13T09:59:46.182Z,97260.84
2023-08-13T10:02:15.450Z,97254.50
2023-08-13T10:04:43.326Z,97256.31
2023-08-13T10:07:10.365Z,97257.31
2023-08-13T10:09:38.665Z,97259.09
2023-08-13T10:12:10.982Z,97255.31
2023-08-13T10:14:38.068Z,97254.22
2023-08-13T10:17:06.935Z,97250.25
2023-08-13T10:19:38.627Z,97253.25
2023-08-13T10:22:05.634Z,97245.66
2023-08-13T10:24:32.446Z,97251.56
2023-08-13T10:27:00.020Z,97251.88
2023-08-13T10:29:36.187Z,97254.13
2023-08-13T10:32:14.046Z,97251.75
2023-08-13T10:34:55.077Z,97254.50
2023-08-13T10:37:23.635Z,97255.47
2023-08-13T10:39:56.350Z,97254.38
2023-08-13T10:42:33.841Z,97254.50
2023-08-13T10:45:08.728Z,97238.09
2023-08-13T10:47:48.125Z,97242.88
2023-08-13T10:50:24.400Z,97237.16
2023-08-13T10:52:53.398Z,97229.41
2023-08-13T10:55:24.999Z,97228.88
2023-08-13T10:57:55.262Z,97224.19
2023-08-13T11:00:26.474Z,97221.06
2023-08-13T11:03:20.253Z,97230.69
2023-08-13T11:05:47.950Z,97222.81
2023-08-13T11:08:41.979Z,97226.06
2023-08-13T11:11:18.225Z,97227.28
2023-08-13T11:13:46.344Z,97225.78
2023-08-13T11:16:13.415Z,97222.75
2023-08-13T11:18:40.144Z,97223.66
2023-08-13T11:21:07.213Z,97223.34
2023-08-13T11:23:33.997Z,97216.69
2023-08-13T11:26:00.822Z,97214.53
2023-08-13T11:28:28.762Z,97208.50
2023-08-13T11:30:57.923Z,97210.94
2023-08-13T11:33:25.585Z,97209.38
2023-08-13T11:35:52.828Z,97205.91
2023-08-13T11:38:20.336Z,97204.63
2023-08-13T11:40:48.838Z,97203.59
2023-08-13T11:43:15.557Z,97208.59
2023-08-13T11:45:43.248Z,97206.97
2023-08-13T11:48:16.122Z,97199.75
2023-08-13T11:50:48.971Z,97207.13
2023-08-13T11:53:17.035Z,97205.84
2023-08-13T11:55:46.189Z,97200.34
2023-08-13T11:58:17.650Z,97202.50
2023-08-13T12:00:44.893Z,97198.84
2023-08-13T12:03:13.545Z,97199.84
2023-08-13T12:05:40.714Z,97192.41
2023-08-13T12:08:10.360Z,97192.13
2023-08-13T12:10:38.234Z,97188.03
2023-08-13T12:13:05.363Z,97187.56
2023-08-13T12:15:35.020Z,97182.38
2023-08-13T12:18:01.804Z,97183.72
2023-08-13T12:20:28.879Z,97188.19
2023-08-13T12:22:56.226Z,97182.00
2023-08-13T12:25:22.855Z,97185.81
2023-08-13T12:27:52.498Z,97183.06
2023-08-13T12:30:19.327Z,97180.56
2023-08-13T12:32:46.081Z,97172.00
2023-08-13T12:35:13.550Z,97162.31
2023-08-13T12:37:40.197Z,97169.44
2023-08-13T12:40:10.294Z,97158.31
2023-08-13T12:42:37.763Z,97156.16
2023-08-13T12:45:07.860Z,97157.00
2023-08-13T12:47:35.866Z,97155.81
2023-08-13T12:50:06.905Z,97143.63
2023-08-13T12:52:33.708Z,97141.00
2023-08-13T12:55:00.492Z,97142.94
2023-08-13T12:57:27.270Z,97141.09
2023-08-13T12:59:55.278Z,97135.91
2023-08-13T13:02:23.291Z,97130.63
2023-08-13T13:04:50.653Z,97131.50
2023-08-13T13:07:17.812Z,97134.19
2023-08-13T13:09:44.433Z,97124.19
2023-08-13T13:12:10.943Z,97125.81
2023-08-13T13:14:37.525Z,97120.34
2023-08-13T13:17:04.274Z,97115.00
2023-08-13T13:19:30.876Z,97120.66
2023-08-13T13:21:57.389Z,97111.16
2023-08-13T13:24:24.560Z,97115.47
2023-08-13T13:26:51.134Z,97109.22
2023-08-13T13:29:17.732Z,97115.22
2023-08-13T13:31:45.679Z,97113.81
2023-08-13T13:34:13.661Z,97112.91
2023-08-13T13:36:42.330Z,97111.41
2023-08-13T13:39:09.059Z,97104.84
2023-08-13T13:41:35.613Z,97100.78
2023-08-13T13:44:02.291Z,97107.06
2023-08-13T13:46:29.015Z,97097.34
2023-08-13T13:48:55.605Z,97097.75
2023-08-13T13:51:22.247Z,97097.28
2023-08-13T13:53:49.979Z,97094.16
2023-08-13T13:56:16.538Z,97090.09
2023-08-13T13:58:43.142Z,97081.78
2023-08-13T14:01:09.838Z,97084.66
2023-08-13T14:03:36.721Z,97076.94
2023-08-13T14:06:03.608Z,97074.59
2023-08-13T14:08:30.175Z,97075.22
2023-08-13T14:10:56.769Z,97075.34
2023-08-13T14:13:23.432Z,97073.78
2023-08-13T14:15:50.134Z,97070.31
2023-08-13T14:18:16.749Z,97062.56
2023-08-13T14:20:43.340Z,97066.00
2023-08-13T14:23:09.903Z,97064.19
2023-08-13T14:25:36.566Z,97061.81
2023-08-13T14:28:04.292Z,97066.03
2023-08-13T14:30:31.148Z,97062.38
2023-08-13T14:32:57.834Z,97065.41
2023-08-13T14:35:24.555Z,97069.84
2023-08-13T14:37:51.212Z,97057.56
2023-08-13T14:40:18.083Z,97066.22
2023-08-13T14:42:44.729Z,97059.94
2023-08-13T14:45:11.458Z,97057.97
2023-08-13T14:47:38.171Z,97057.19
2023-08-13T14:50:05.440Z,97061.09
2023-08-13T14:52:32.148Z,97063.38
2023-08-13T14:54:58.869Z,97064.34
2023-08-13T14:57:25.462Z,97065.66
2023-08-13T14:59:52.151Z,97072.97
2023-08-13T15:02:18.933Z,97068.59
2023-08-13T15:04:45.940Z,97067.09
2023-08-13T15:07:12.541Z,97066.16
2023-08-13T15:09:39.724Z,97061.56
2023-08-13T15:12:06.802Z,97061.09
2023-08-13T15:14:33.417Z,97063.56
2023-08-13T15:17:00.105Z,97049.84
2023-08-13T15:19:28.149Z,97049.97
2023-08-13T15:21:54.703Z,97041.69
2023-08-13T15:24:21.319Z,97043.50
2023-08-13T15:26:47.884Z,97049.06
2023-08-13T15:29:14.458Z,97045.59
2023-08-13T15:31:41.271Z,97052.13
2023-08-13T15:34:11.349Z,97049.06
2023-08-13T15:36:37.939Z,97042.78
2023-08-13T15:39:05.999Z,97043.97
2023-08-13T15:41:33.458Z,97042.44
2023-08-13T15:44:02.091Z,97036.88
2023-08-13T15:46:29.426Z,97045.16
2023-08-13T15:48:56.036Z,97032.97
2023-08-13T15:51:23.267Z,97035.22
2023-08-13T15:53:52.382Z,97036.88
2023-08-13T15:56:19.064Z,97034.41
2023-08-13T15:58:45.725Z,97039.00
2023-08-13T16:01:12.882Z,97032.97
2023-08-13T16:03:39.551Z,97039.47
2023-08-13T16:06:06.113Z,97041.69
2023-08-13T16:08:32.769Z,97038.75
2023-08-13T16:11:00.399Z,97039.59
2023-08-13T16:13:27.941Z,97038.41
2023-08-13T16:15:54.887Z,97037.00
2023-08-13T16:18:22.912Z,97038.19
2023-08-13T16:20:49.891Z,97029.41
2023-08-13T16:23:16.552Z,97032.88
2023-08-13T16:25:43.186Z,97035.22
2023-08-13T16:28:09.767Z,97029.53
2023-08-13T16:30:36.490Z,97039.09
2023-08-13T16:33:03.474Z,97031.41
2023-08-13T16:35:30.290Z,97027.28
2023-08-13T16:37:57.367Z,97034.56
2023-08-13T16:40:23.972Z,97028.69
2023-08-13T16:43:04.337Z,97026.66
2023-08-13T16:45:33.383Z,97020.75
2023-08-13T16:48:00.338Z,97019.44
2023-08-13T16:50:27.259Z,97017.88
2023-08-13T16:52:54.241Z,97013.38
2023-08-13T16:55:22.308Z,97015.47
2023-08-13T16:57:49.230Z,97017.81
2023-08-13T17:00:16.118Z,97016.41
2023-08-13T17:02:44.750Z,97019.56
2023-08-13T17:05:13.232Z,97020.66
2023-08-13T17:07:40.376Z,97018.84
2023-08-13T17:10:08.639Z,97017.41
2023-08-13T17:12:37.043Z,97022.72
2023-08-13T17:15:21.403Z,97026.81
2023-08-13T17:17:51.781Z,97017.47
2023-08-13T17:20:21.360Z,97020.41
2023-08-13T17:22:49.094Z,97021.94
2023-08-13T17:25:15.866Z,97020.03
2023-08-13T17:27:42.676Z,97017.81
2023-08-13T17:30:09.952Z,97022.69
2023-08-13T17:32:36.611Z,97020.50
2023-08-13T17:35:03.773Z,97025.88
2023-08-13T17:37:32.403Z,97033.09
2023-08-13T17:40:00.280Z,97040.09
2023-08-13T17:42:27.134Z,97037.44
2023-08-13T17:44:53.988Z,97046.47
2023-08-13T17:47:22.342Z,97050.91
2023-08-13T17:49:49.646Z,97050.75
2023-08-13T17:52:17.037Z,97050.19
2023-08-13T17:54:44.260Z,97054.38
2023-08-13T17:57:10.877Z,97059.50
2023-08-13T17:59:37.471Z,97063.72
2023-08-13T18:02:04.230Z,97061.97
2023-08-13T18:04:30.829Z,97067.03
2023-08-13T18:06:57.628Z,97061.69
2023-08-13T18:09:24.434Z,97059.84
2023-08-13T18:11:53.181Z,97064.91
2023-08-13T18:14:20.234Z,97050.81
2023-08-13T18:16:46.960Z,97051.72
2023-08-13T18:19:14.415Z,97044.28
2023-08-13T18:21:41.160Z,97047.63
2023-08-13T18:24:08.917Z,97040.19
2023-08-13T18:26:35.736Z,97041.69
2023-08-13T18:29:02.305Z,97042.56
2023-08-13T18:31:29.450Z,97037.59
2023-08-13T18:33:56.121Z,97029.09
2023-08-13T18:36:22.841Z,97032.03
2023-08-13T18:38:49.638Z,97035.53
2023-08-13T18:41:16.326Z,97043.03
2023-08-13T18:43:43.267Z,97041.78
2023-08-13T18:46:10.063Z,97048.44
2023-08-13T18:48:36.776Z,97059.47
2023-08-13T18:51:03.754Z,97062.97
2023-08-13T18:53:30.469Z,97060.28
2023-08-13T18:55:57.289Z,97068.81
2023-08-13T18:58:23.964Z,97062.78
2023-08-13T19:00:51.137Z,97062.78
2023-08-13T19:03:17.847Z,97067.53
2023-08-13T19:05:45.782Z,97060.84
2023-08-13T19:08:12.706Z,97067.25
2023-08-13T19:10:46.492Z,97073.66
2023-08-13T19:13:14.187Z,97079.91
2023-08-13T19:15:41.479Z,97076.97
2023-08-13T19:18:08.254Z,97076.31
2023-08-13T19:20:35.653Z,97081.91
2023-08-13T19:23:03.714Z,97088.31
2023-08-13T19:25:30.620Z,97093.06
2023-08-13T19:27:57.389Z,97110.78
2023-08-13T19:30:24.122Z,97116.59
2023-08-13T19:32:50.824Z,97110.91
2023-08-13T19:35:17.731Z,97111.91
2023-08-13T19:37:45.578Z,97114.31
2023-08-13T19:40:12.695Z,97111.63
2023-08-13T19:42:39.361Z,97103.72
2023-08-13T19:45:06.573Z,97111.75
2023-08-13T19:47:33.273Z,97107.59
2023-08-13T19:50:00.134Z,97116.22
2023-08-13T19:52:26.758Z,97118.69
2023-08-13T19:54:53.373Z,97105.38
2023-08-13T19:57:21.024Z,97105.38
2023-08-13T19:59:49.369Z,97104.16
2023-08-13T20:02:16.261Z,97099.00
2023-08-13T20:04:43.051Z,97102.47
2023-08-13T20:07:09.870Z,97116.78
2023-08-13T20:09:36.459Z,97117.97
2023-08-13T20:12:03.220Z,97119.75
2023-08-13T20:14:29.890Z,97126.97
2023-08-13T20:16:56.462Z,97127.34
2023-08-13T20:19:23.055Z,97134.59
2023-08-13T20:21:52.726Z,97146.38
2023-08-13T20:24:20.440Z,97139.16
2023-08-13T20:26:47.941Z,97142.66
2023-08-13T20:29:15.678Z,97145.34
2023-08-13T20:31:43.451Z,97139.78
2023-08-13T20:34:10.467Z,97140.38
2023-08-13T20:36:37.969Z,97147.38
2023-08-13T20:39:05.221Z,97147.59
2023-08-13T20:41:32.193Z,97154.00
2023-08-13T20:43:58.901Z,97148.75
2023-08-13T20:46:25.928Z,97158.69
2023-08-13T20:48:52.730Z,97166.75
2023-08-13T20:51:19.746Z,97173.97
2023-08-13T20:53:46.385Z,97170.94
2023-08-13T20:56:13.036Z,97173.16
2023-08-13T20:58:39.634Z,97167.50
2023-08-13T21:01:07.448Z,97172.28
2023-08-13T21:03:34.181Z,97166.63
2023-08-13T21:06:00.802Z,97160.59
2023-08-13T21:08:27.386Z,97161.19
2023-08-13T21:10:53.978Z,97162.00
2023-08-13T21:13:20.590Z,97165.72
2023-08-13T21:15:47.577Z,97163.88
2023-08-13T21:18:14.231Z,97154.94
2023-08-13T21:20:40.807Z,97160.91
2023-08-13T21:23:07.350Z,97161.53
2023-08-13T21:25:34.668Z,97166.91
2023-08-13T21:28:01.326Z,97172.28
2023-08-13T21:30:27.976Z,97168.78
2023-08-13T21:32:56.018Z,97177.41
2023-08-13T21:35:24.118Z,97187.53
2023-08-13T21:37:50.746Z,97183.84
2023-08-13T21:40:17.409Z,97189.69
2023-08-13T21:42:44.111Z,97211.09
2023-08-13T21:45:10.825Z,97215.66
2023-08-13T21:47:37.476Z,97231.78
2023-08-13T21:50:04.430Z,97273.56
2023-08-13T21:52:31.126Z,97313.78
2023-08-13T21:54:57.706Z,97343.97
2023-08-13T21:57:24.277Z,97351.75
2023-08-13T21:59:50.774Z,97353.66
2023-08-13T22:02:17.517Z,97353.38
2023-08-13T22:04:45.407Z,97344.84
2023-08-13T22:07:11.967Z,97335.50
2023-08-13T22:09:38.491Z,97347.78
2023-08-13T22:12:05.183Z,97345.28
2023-08-13T22:14:31.734Z,97337.22
2023-08-13T22:16:58.273Z,97335.53
2023-08-13T22:19:46.649Z,97336.91
2023-08-13T22:22:13.254Z,97342.00
2023-08-13T22:24:39.843Z,97335.31
2023-08-13T22:27:07.079Z,97323.94
2023-08-13T22:29:33.667Z,97321.88
2023-08-13T22:32:00.322Z,97331.31
2023-08-13T22:34:26.932Z,97329.66
2023-08-13T22:36:53.611Z,97338.91
2023-08-13T22:39:20.155Z,97335.09
2023-08-13T22:41:46.689Z,97339.84
2023-08-13T22:44:13.237Z,97339.19
2023-08-13T22:46:39.837Z,97344.09
2023-08-13T22:49:06.393Z,97344.44
2023-08-13T22:51:32.974Z,97345.78
2023-08-13T22:53:59.514Z,97349.22
2023-08-13T22:56:29.677Z,97348.91
2023-08-13T22:58:56.484Z,97345.91
2023-08-13T23:01:23.103Z,97338.56
2023-08-13T23:03:49.740Z,97344.47
2023-08-13T23:06:18.748Z,97346.47
2023-08-13T23:08:45.447Z,97354.72
2023-08-13T23:11:12.052Z,97350.56
2023-08-13T23:13:38.623Z,97349.56
2023-08-13T23:16:05.841Z,97336.66
2023-08-13T23:18:32.509Z,97338.03
2023-08-13T23:20:59.169Z,97342.41
2023-08-13T23:23:25.756Z,97343.56
2023-08-13T23:25:52.352Z,97344.25
2023-08-13T23:28:19.092Z,97337.91
2023-08-13T23:30:45.683Z,97331.50
2023-08-13T23:33:12.389Z,97339.25
2023-08-13T23:35:38.994Z,97328.22
2023-08-13T23:38:05.588Z,97323.91
2023-08-13T23:40:32.154Z,97326.63
2023-08-13T23:42:58.831Z,97333.69
2023-08-13T23:45:25.466Z,97328.00
2023-08-13T23:47:52.111Z,97335.56
2023-08-13T23:50:18.741Z,97327.88
2023-08-13T23:52:45.271Z,97328.19
2023-08-13T23:55:11.815Z,97329.19
2023-08-13T23:57:38.401Z,97324.69
